Terminal Aerodrome Forecast
Issued by NWS

Home | Current Version | Previous Version | Text Only | Print | Product List | Glossary On
Versions: 1 2 3 4 5 6 7 8 9 10 11 12 13 14 15 16 17
000
FTUS46 KSEW 251100
TAFCLM
TAF
KCLM 251123Z 2512/2612 VRB04KT P6SM -RA BKN005 OVC070
     FM251600 VRB04KT P6SM -RA SCT005 OVC050
     FM252200 VRB04KT P6SM -RA BKN020 OVC040
     FM260400 28015G25KT P6SM -RA OVC030
      AMD NOT SKED=

USA.gov is the U.S. government's official web portal to all federal, state and local government web resources and services.